CPX256 Details

Departure: Princess Juliana International Airport (TNCM)
Arrival: Grantley Adams International Airport (TBPB) at N/A
Route: PJM B520 ANU UA632 BGI
Notes:


Current Weather Information
TNCM 230700Z 05005KT 030V090 9999 FEW018 27/23 Q1012
TBPB 230700Z 11012KT 9999 SCT018 SCT036 28/23 Q1010 NOSIG